Tiempo atmosférico en la estación meteorológica de Grazalema, Cádiz (900 m.)



Fecha
DESCASC
Temp. máxima en grados centígrados (hora)
DESCASC
Temp. mínima en grados centígrados (hora)
DESCASC
Temp. media en grados centígrados
DESCASC
Racha de viento máxima en m/sg (hora)
DESCASC
Velocidad máxima media en intervalos de 10 minutos(hora)
DESCASC
Precipitaciones diarias en mm
DESCASC
Precipitaciones de 00:00 a 06:00 en mm
DESCASC
Precipitaciones de 06:00 a 12:00 en mm
DESCASC
Precipitaciones de 12:00 a 18:00 en mm
DESCASC
Precipitaciones de 18:00 a 24:00 en mm
DESCASC
25-04-2019 10.9 (01:30) 8.1 (11:00) 9.5 15.28 (04:10) 4.17 (06:40) 49.5 31.7 14.7 3.1 0
24-04-2019 -- (--) -- (--) -- -- (--) -- (--) -- 4 2.7 -- 11.4
23-04-2019 9.9 (00:00) 4.9 (09:30) 7.4 10 (11:20) 3.89 (01:20) 20.6 0.4 19.4 0.1 0.7
22-04-2019 15.8 (14:20) 7.4 (00:00) 11.6 9.44 (23:00) 3.06 (22:40) 0 0 0 0 0
21-04-2019 11.9 (13:40) 6.3 (00:00) 9.1 3.61 (14:40) 2.22 (04:20) 0.9 0 0.4 0.4 0.1
20-04-2019 13.1 (17:00) 4.6 (00:00) 8.9 6.39 (19:50) 2.5 (19:50) 1.2 0 0.1 0.2 0.9
19-04-2019 14.3 (17:10) 4.3 (00:00) 9.3 6.11 (14:30) 2.5 (16:00) 4.7 0 0 0 4.7
18-04-2019 12.5 (15:50) 6.1 (00:00) 9.3 10.28 (18:40) 3.61 (18:40) 13.3 0.2 7.4 0.1 5.6
17-04-2019 17.3 (12:40) 8.8 (00:00) 13 12.78 (05:00) 4.72 (07:50) 0 0 0 0 0
16-04-2019 21.7 (16:00) 6.4 (00:00) 14.1 7.22 (23:00) 2.5 (00:10) 0 0 0 0 0
15-04-2019 21.4 (13:30) 9.4 (00:00) 15.4 9.17 (17:30) 3.61 (17:00) 0 0 0 0 0
14-04-2019 22.6 (17:00) 7.6 (00:00) 15.1 5 (16:10) 2.5 (14:20) 0 0 0 0 0
13-04-2019 19.2 (16:10) 6.2 (00:00) 12.7 5.56 (14:10) 2.78 (04:40) 0 0 0 0 0
12-04-2019 17.2 (15:40) 4.3 (00:00) 10.8 6.39 (15:00) 3.06 (12:00) 0 0 0 0 0
11-04-2019 14.5 (16:30) 4 (00:00) 9.3 7.22 (14:10) 2.5 (14:10) 0 0 0 0 0
10-04-2019 11.7 (14:00) 5.7 (00:00) 8.7 9.44 (05:40) 4.44 (11:30) 0 0 0 0 0
09-04-2019 12 (15:50) 5.9 (00:00) 9 9.17 (11:20) 3.61 (11:20) 0 0 0 0 0
08-04-2019 10.5 (12:30) 7.7 (00:00) 9.1 9.72 (22:30) 2.78 (22:20) 34.1 4.4 4.2 17.5 8
07-04-2019 10.4 (19:50) 5.6 (00:00) 8 13.61 (00:10) 3.89 (00:50) 79.3 4.6 1 22.8 50.9
06-04-2019 6.9 (13:30) 3.6 (00:00) 5.3 11.39 (23:10) 3.89 (23:10) 30.4 0 13.9 14.6 1.9
05-04-2019 7.3 (17:10) 4.6 (00:00) 6 10.56 (17:10) 3.61 (21:50) 45.8 2.5 38.3 2.8 2.2
04-04-2019 13.5 (14:50) 1.9 (00:00) 7.7 7.5 (17:00) 2.78 (19:40) 0 0 0 0 0
03-04-2019 17.2 (15:30) 5.8 (00:00) 11.5 8.06 (17:40) 2.78 (17:50) 0 0 0 0 0
02-04-2019 16 (14:30) 4.6 (00:00) 10.3 4.17 (13:30) 2.5 (03:30) 0 0 0 0 0
01-04-2019 12.5 (14:30) 7.8 (00:00) 10.2 6.39 (08:30) 2.22 (20:50) 8.9 0.3 6.9 1.6 0.1
31-03-2019 15.1 (15:20) 7.2 (00:00) 11.2 5.83 (17:20) 2.5 (17:20) 26.5 0.7 3.2 1.1 21.5
30-03-2019 16.1 (14:00) 8 (00:00) 12.1 10 (03:50) 3.33 (05:40) 0 0 0 0 0
29-03-2019 14.7 (13:00) 7.1 (00:00) 10.9 9.72 (23:59) 3.33 (16:00) 0 0 0 0 0
28-03-2019 13.1 (14:20) 5.9 (00:00) 9.5 12.22 (11:50) 5.28 (00:50) 0 0 0 0 0
27-03-2019 13.3 (14:50) 6.9 (00:00) 10.1 13.89 (00:20) 6.39 (21:30) 0 0 0 0 0

Gráficas

Temp. máximas Temp. mínimas Temp. medias Precipitaciones Rachas de viento máximas Velocidades máximas media en intervalos de 10 minutos

Datos horarios

Fecha y hora oficial Temperatura (ºC) Velocidad del viento (km/h) Dirección del viento Racha (km/h) Dirección de racha Precipitación (mm) Presión (hPa) Tendencia (hPa) Humedad (%)
2019-04-25 23:00:00 8.7 8 Oeste 21 Oeste 0 916.1 2.4 87
2019-04-25 22:00:00 8.9 5 Sudoeste 17 Oeste 0 915.2 1.7 85
2019-04-25 21:00:00 9.3 5 Oeste 22 Oeste 0 914.6 1.7 85
2019-04-25 20:00:00 9.5 8 Oeste 22 Oeste 0 913.7 1.4 79
2019-04-25 19:00:00 10 6 Oeste 22 Sudoeste 0 913.5 1.2 76
2019-04-25 18:00:00 10.4 9 Sudoeste 32 Oeste 0 912.9 0.7 75
2019-04-25 17:00:00 10.1 8 Oeste 32 Oeste 0 912.3 0 91
2019-04-25 16:00:00 9.5 8 Oeste 31 Sudoeste 1.1 912.3 0.1 95
2019-04-25 15:00:00 9.4 5 Oeste 29 Sudoeste 0.3 912.2 0 95
2019-04-25 14:00:00 9.3 7 Oeste 23 Oeste 1.5 912.3 0.6 95
2019-04-25 13:00:00 9 6 Oeste 17 Sudoeste 0.2 912.2 1.2 95
2019-04-25 12:00:00 8.4 6 Oeste 23 Sudoeste 0.7 912.2 2.2 96
2019-04-25 11:00:00 8.3 5 Oeste 20 Noroeste 0.4 911.7 2.6 98
2019-04-25 10:00:00 8.3 9 Oeste 30 Sudoeste 1.8 911 2.7 98
2019-04-25 09:00:00 9.7 6 Oeste 22 Sudoeste 6.5 910 1.9 98
2019-04-25 08:00:00 10.1 8 Oeste 40 Oeste 4 909.1 1 98
2019-04-25 07:00:00 10.3 12 Sudoeste 47 Sudoeste 1.3 908.3 0.3 98
2019-04-25 06:00:00 10.6 8 Sudoeste 32 Sur 5.5 908.1 -0.7 98
2019-04-25 05:00:00 10.5 9 Sudoeste 55 Sudoeste 2.3 908.1 -0.9 98
2019-04-25 04:00:00 10.6 11 Sudoeste 34 Sudoeste 2.9 908 -1 98
2019-04-25 03:00:00 10.4 7 Sudoeste 30 Sudoeste 8.7 908.8 -0.5 98
2019-04-25 02:00:00 10.5 9 Sudoeste 29 Sudoeste 5.3 909 0.1 98
2019-04-25 01:00:00 10.7 8 Oeste 38 Sudoeste 7 909 0.5 98
2019-04-25 00:00:00 10.4 7 Oeste 30 Sur 3.3 909.3 1.1 98
2019-04-24 23:00:00 10 9 Oeste 30 Sudoeste 1.5 908.9 1 98
2019-04-24 22:00:00 9.9 8 Oeste 36 Sudoeste 1.1 908.5 -- 98
2019-04-24 21:00:00 9.6 8 Oeste 26 Oeste 3.3 908.2 0.3 96
2019-04-24 20:00:00 9.5 7 Oeste 26 Noroeste 2.2 907.9 0.3 96
2019-04-24 19:00:00 -- -- -- -- -- -- -- -- --
2019-04-24 18:00:00 9.6 5 Oeste 30 Sudoeste 0.1 907.9 -- 95
2019-04-24 17:00:00 9.6 6 Sudoeste -- -- -- 907.6 -0.2 96
2019-04-24 16:00:00 -- -- -- -- -- -- -- -- --
2019-04-24 15:00:00 -- -- -- -- -- -- -- -- --
2019-04-24 14:00:00 8.8 5 Oeste 23 Sur 2.2 907.8 0.8 96
2019-04-24 13:00:00 8.9 3 Oeste 27 Oeste 1 907.6 1.1 95
2019-04-24 12:00:00 8.7 7 Oeste 24 Sudoeste 0.1 907.5 1.7 95
2019-04-24 11:00:00 8.3 6 Oeste 30 Sudoeste 0.6 907 2.1 96
2019-04-24 10:00:00 7.7 6 Oeste 36 Sudoeste 0.1 906.5 2.2 96
2019-04-24 09:00:00 7.3 6 Oeste 24 Noroeste 0.2 905.8 1.8 96
2019-04-24 08:00:00 6.8 6 Oeste 29 Sudoeste 1.6 904.9 0.8 96
2019-04-24 07:00:00 6.7 8 Oeste 23 Sudeste 0.1 904.3 0.3 96
2019-04-24 06:00:00 6.5 6 Sudoeste 34 Sudoeste 0 904 0 96
2019-04-24 05:00:00 6.5 4 Oeste 28 Oeste 0.1 904.1 -0.1 96
2019-04-24 04:00:00 6.3 4 Oeste 29 Oeste 0.5 904 0.1 95
2019-04-24 03:00:00 6.4 4 Oeste 24 Oeste 1.3 904 0.3 94
2019-04-24 02:00:00 6.2 6 Oeste 31 Sudoeste 2 904.2 1 92
2019-04-24 01:00:00 6.4 8 Sudoeste 30 Noroeste 0.1 903.9 1.1 91
2019-04-24 00:00:00 6.4 5 Sudoeste 31 Sur 0 903.7 2.1 90
2019-04-23 23:00:00 6.4 5 Oeste 29 Noroeste 0 903.2 1.8 90
2019-04-23 22:00:00 6.5 6 Oeste 30 Oeste 0 902.8 1.5 86
2019-04-23 21:00:00 6.7 6 Sudoeste 34 Sudoeste 0.3 901.6 1 85
2019-04-23 20:00:00 6.9 6 Oeste 26 Oeste 0.4 901.4 1.1 83
2019-04-23 19:00:00 7.8 9 Sudoeste 32 Sur 0 901.3 1.1 69
2019-04-23 18:00:00 8.1 10 Oeste 32 Oeste 0 900.6 0.7 69
2019-04-23 17:00:00 8.5 10 Oeste 28 Oeste 0 900.3 0.5 65
2019-04-23 16:00:00 8.4 9 Oeste 31 Sur 0 900.2 0.4 63
2019-04-23 15:00:00 8.8 6 Oeste 35 Oeste 0 899.9 0.4 66
2019-04-23 14:00:00 8.6 8 Oeste 29 Oeste 0.1 899.8 0.9 68
2019-04-23 13:00:00 8.2 8 Oeste 22 Sudoeste 0 899.8 1.1 69
2019-04-23 12:00:00 8.2 8 Oeste 36 Sudoeste 0 899.5 1.7 78
2019-04-23 11:00:00 6 8 Oeste 26 Sudoeste 0 898.9 1.2 88
2019-04-23 10:00:00 5.2 6 Oeste 28 Noroeste 1.6 898.7 2.4 91
2019-04-23 09:00:00 6 7 Oeste 27 Noroeste 3.4 897.8 1 94
2019-04-23 08:00:00 7.9 9 Oeste 33 Oeste 12 897.7 0 94
2019-04-23 07:00:00 8.8 6 Oeste 22 Sudoeste 2.4 896.3 -1.8 94
2019-04-23 06:00:00 8.9 4 Oeste 31 Sur 0.4 896.8 -2.2 94
2019-04-23 05:00:00 9.1 8 Oeste 29 Oeste 0 897.7 -1.8 94
2019-04-23 04:00:00 9.3 9 Oeste 28 Oeste 0 898.1 -1.5 92
2019-04-23 03:00:00 9.8 8 Oeste 32 Sudoeste 0 899 -1.3 91
2019-04-23 02:00:00 9.6 10 Oeste 33 Oeste 0 899.5 -0.8 92
2019-04-23 01:00:00 9.7 10 Oeste 28 Sudoeste 0 899.6 -0.6 91
2019-04-23 00:00:00 9.9 9 Sudoeste 32 Sudoeste 0 900.3 -0.1 90
2019-04-22 23:00:00 10.1 11 Oeste 34 Sudoeste 0 900.3 -0.2 90
2019-04-22 22:00:00 10.6 8 Oeste 23 Sudoeste 0 900.2 -0.4 86
2019-04-22 21:00:00 11.2 4 Sudoeste 21 Sudoeste 0 900.4 -0.1 83
2019-04-22 20:00:00 11.8 9 Oeste 27 Sudoeste 0 900.5 -0.1 76
2019-04-22 19:00:00 13 9 Oeste 29 Noroeste 0 900.6 -0.6 69
2019-04-22 18:00:00 14.5 8 Oeste 30 Sudeste 0 900.5 -1 63
2019-04-22 17:00:00 14.1 6 Oeste 26 Sudoeste 0 900.6 -1.2 67
2019-04-22 16:00:00 14.7 8 Oeste 24 Noroeste 0 901.2 -1.1 63
2019-04-22 15:00:00 15 7 Oeste 21 Sudoeste 0 901.5 -0.9 61
2019-04-22 14:00:00 14.8 7 Oeste 25 Sudoeste 0 901.8 -0.4 59
2019-04-22 13:00:00 13.8 8 Oeste 22 Oeste 0 902.3 0.3 60
2019-04-22 12:00:00 12.8 6 Sudoeste 22 Sudoeste 0 902.4 0.3 60
2019-04-22 11:00:00 12.9 7 Oeste 22 Noroeste 0 902.2 0.6 59
2019-04-22 10:00:00 12.2 5 Oeste 17 Sudoeste 0 902 0.7 63
2019-04-22 09:00:00 9.7 5 Oeste 18 Sudoeste 0 902.1 0.7 73
2019-04-22 08:00:00 8.3 5 Oeste 23 Noroeste 0 901.6 -0.3 76
2019-04-22 07:00:00 8.8 8 Oeste 21 Noroeste 0 901.3 -0.7 76
2019-04-22 06:00:00 8.5 4 Oeste 17 Oeste 0 901.4 -0.8 77
2019-04-22 05:00:00 8.3 6 Oeste 20 Noroeste 0 901.9 -1 81
2019-04-22 04:00:00 8.3 8 Oeste 23 Noroeste 0 902 -1.4 81
2019-04-22 03:00:00 8.5 8 Oeste 21 Oeste 0 902.2 -1.5 81
2019-04-22 02:00:00 8.2 3 Oeste 14 Oeste 0 902.9 -0.8 85
2019-04-22 01:00:00 8 3 Oeste 10 Sudoeste 0 903.4 -0.1 88
2019-04-22 00:00:00 7.4 3 Sudoeste 9 Oeste 0 903.7 0.4 91
2019-04-21 23:00:00 7.6 4 Oeste 9 Este 0 903.7 0.5 90
2019-04-21 22:00:00 9.6 5 Este 11 Este 0 903.5 0.4 86
2019-04-21 21:00:00 10.1 0 Calma 6 Este 0.1 903.3 0.3 82
2019-04-21 20:00:00 10.6 3 Sudoeste 12 Sudoeste 0 903.2 -0.1 79
2019-04-21 19:00:00 10.8 2 Oeste 11 Este 0 903.1 -0.4 82
2019-04-21 18:00:00 11.2 2 Noroeste 11 Noroeste 0 903 -0.6 82
2019-04-21 17:00:00 10.8 2 Nordeste 12 Este 0.1 903.3 -0.6 86
2019-04-21 16:00:00 10.8 4 Este 12 Este 0 903.5 -0.8 86
2019-04-21 15:00:00 10.7 2 Este 13 Este 0.1 903.6 -1 87
2019-04-21 14:00:00 11.1 5 Este 12 Nordeste 0 903.9 -0.6 86
2019-04-21 13:00:00 11.3 2 Sur 5 Este 0.2 904.3 -0.1 83
2019-04-21 12:00:00 10.3 2 Este 4 Este 0.3 904.6 0 89
2019-04-21 11:00:00 10 0 Calma 4 Nordeste 0.1 904.5 -0.2 89
2019-04-21 10:00:00 10.1 0 Calma 6 Este 0 904.4 -0.4 88
2019-04-21 09:00:00 9.4 0 Calma 6 Noroeste 0 904.6 -0.5 95
2019-04-21 08:00:00 7.9 3 Oeste 8 Oeste 0 904.7 -1.1 95
2019-04-21 07:00:00 7.9 3 Oeste 7 Oeste 0 904.8 -1.4 95
2019-04-21 06:00:00 7.3 5 Oeste 9 Oeste 0 905.1 -1.6 95
2019-04-21 05:00:00 7.2 5 Oeste 11 Oeste 0 905.8 -1.5 94
2019-04-21 04:00:00 6.5 7 Oeste 11 Noroeste 0 906.2 -1.8 94
2019-04-21 03:00:00 7.8 6 Oeste 11 Noroeste 0 906.7 -1.3 94
2019-04-21 02:00:00 9.1 3 Oeste 8 Noroeste 0 907.3 -0.9 94
2019-04-21 01:00:00 9.5 0 Calma 5 Oeste 0 908 0.1 94
2019-04-21 00:00:00 9.7 2 Oeste 15 Sur 0.1 908 0.7 94
2019-04-20 23:00:00 10.1 4 Sudeste 10 Sudeste 0 908.2 1.4 93
2019-04-20 22:00:00 10 2 Noroeste 5 Oeste 0 907.9 1.4 94
2019-04-20 21:00:00 10.3 0 Calma 12 Este 0.4 907.3 0.9 93
2019-04-20 20:00:00 10.7 8 Este 23 Este 0.3 906.8 0.2 90
2019-04-20 19:00:00 13 2 Sudoeste 6 Sudoeste 0.1 906.5 -0.2 72
2019-04-20 18:00:00 12.7 2 Sudeste 10 Nordeste 0.2 906.4 -0.2 78
2019-04-20 17:00:00 12.8 5 Este 12 Nordeste 0 906.6 0.1 71
2019-04-20 16:00:00 11.8 6 Este 16 Este 0 906.7 0 76
2019-04-20 15:00:00 12 5 Este 13 Este 0 906.6 -0.4 76
2019-04-20 14:00:00 12 3 Nordeste 14 Este 0 906.5 -0.7 75
2019-04-20 13:00:00 11.7 4 Este 12 Este 0 906.7 -0.8 77
2019-04-20 12:00:00 9.9 4 Este 11 Nordeste 0.1 907 -0.5 86
2019-04-20 11:00:00 7.8 0 Calma 9 Este 0 907.2 0 97
2019-04-20 10:00:00 7.3 6 Este 11 Este 0 907.5 0.6 97
2019-04-20 09:00:00 6.9 0 Calma 9 Oeste 0 907.5 0 97
2019-04-20 08:00:00 6 5 Oeste 12 Oeste 0 907.2 -1 97
2019-04-20 07:00:00 5.9 8 Oeste 12 Oeste 0 906.9 -1.8 97
2019-04-20 06:00:00 5.5 7 Oeste 11 Oeste 0 907.5 -2.2 97
2019-04-20 05:00:00 5.4 7 Oeste 12 Oeste 0 908.2 -1.5 97
2019-04-20 04:00:00 5.1 5 Oeste 10 Oeste 0 908.7 -1.5 97
2019-04-20 03:00:00 4.8 5 Oeste 12 Oeste 0 909.7 -0.9 97
2019-04-20 02:00:00 5.3 7 Oeste 11 Oeste 0 909.7 -1.6 97
2019-04-20 01:00:00 5.6 6 Oeste 11 Noroeste 0 910.2 -1.1 96
2019-04-20 00:00:00 7 6 Oeste 11 Noroeste 0.2 910.6 0.3 96
2019-04-19 23:00:00 7.8 3 Oeste 7 Oeste 2.1 911.3 1.6 96
2019-04-19 22:00:00 8.4 0 Calma 16 Este 2.2 911.3 2 94
2019-04-19 21:00:00 8.5 3 Oeste 13 Oeste 0.2 910.3 1.4 90
2019-04-19 20:00:00 10.4 6 Sur 16 Sudeste 0 909.7 0.9 74
2019-04-19 19:00:00 11.3 7 Noroeste 16 Sudoeste 0 909.3 -0.2 68
2019-04-19 18:00:00 11.6 5 Oeste 13 Oeste 0 908.9 -0.8 69
2019-04-19 17:00:00 14 0 Calma 15 Noroeste 0 908.8 -1.1 58
2019-04-19 16:00:00 11.1 9 Oeste 15 Oeste 0 909.5 -0.7 69
2019-04-19 15:00:00 10.4 4 Oeste 22 Este 0 909.7 -0.6 70
2019-04-19 14:00:00 11.3 3 Noroeste 14 Este 0 909.9 0.2 69
2019-04-19 13:00:00 11.3 4 Este 15 Este 0 910.2 0.7 71
2019-04-19 12:00:00 10.9 7 Este 19 Este 0 910.3 1 70
2019-04-19 11:00:00 11.5 5 Este 15 Este 0 909.7 0.7 72
2019-04-19 10:00:00 9.3 4 Este 8 Este 0 909.5 0.7 80
2019-04-19 09:00:00 7.5 3 Noroeste 10 Oeste 0 909.3 0.5 95
2019-04-19 08:00:00 4.5 5 Oeste 12 Oeste 0 909 -0.1 96
2019-04-19 07:00:00 5.2 6 Oeste 13 Noroeste 0 908.8 -0.6 96
2019-04-19 06:00:00 4.8 6 Oeste 11 Oeste 0 908.8 -1 96
2019-04-19 05:00:00 4.9 8 Oeste 10 Oeste 0 909.1 -0.8 96
2019-04-19 04:00:00 5.7 3 Oeste 12 Oeste 0 909.4 -0.6 95
2019-04-19 03:00:00 6.7 6 Oeste 11 Oeste 0 909.8 0 95
2019-04-19 02:00:00 5.6 5 Oeste 15 Oeste 0 909.9 0.2 94
2019-04-19 01:00:00 6.5 5 Oeste 14 Sudoeste 0 910 0.4 87
2019-04-19 00:00:00 6.8 6 Oeste 15 Oeste 0 909.8 0.5 92
2019-04-18 23:00:00 6.2 6 Oeste 11 Oeste 0 909.7 0.7 96
2019-04-18 22:00:00 6.5 7 Oeste 12 Noroeste 0.2 909.6 0.8 95
2019-04-18 21:00:00 7.1 5 Oeste 18 Noroeste 4.4 909.3 1.4 94
2019-04-18 20:00:00 7.4 4 Oeste 32 Noroeste 0.9 909 1.1 91
2019-04-18 19:00:00 7.3 10 Oeste 37 Noroeste 0.1 908.8 0.7 88
2019-04-18 18:00:00 10.9 9 Oeste 25 Oeste 0 907.9 -0.4 73
2019-04-18 17:00:00 11.1 9 Oeste 21 Oeste 0 907.9 -0.6 74
2019-04-18 16:00:00 11.5 9 Oeste 19 Sudoeste 0 908.1 -0.6 71
2019-04-18 15:00:00 11 9 Oeste 22 Oeste 0 908.3 -0.5 79
2019-04-18 14:00:00 10.2 8 Oeste 24 Sudoeste 0.1 908.5 -0.3 83
2019-04-18 13:00:00 11.1 6 Sudoeste 21 Sudoeste 0 908.7 -0.7 73
2019-04-18 12:00:00 10.3 6 Oeste 14 Sudoeste 0 908.8 -0.2 78
2019-04-18 11:00:00 7.8 0 Calma 14 Sudoeste 1.5 908.8 0.4 95
2019-04-18 10:00:00 7.2 6 Oeste 22 Oeste 4.7 909.4 1.4 95
2019-04-18 09:00:00 7.6 10 Noroeste 28 Noroeste 1.2 909 1 94
2019-04-18 08:00:00 8.3 4 Noroeste 11 Noroeste 0 908.4 0.9 96
2019-04-18 07:00:00 8.7 2 Oeste 12 Noroeste 0 908 -0.4 96
2019-04-18 06:00:00 8.7 5 Oeste 19 Oeste 0.2 908 -1 96
2019-04-18 05:00:00 9.1 3 Oeste 12 Oeste 0 907.5 -2 93
2019-04-18 04:00:00 9.2 5 Oeste 14 Oeste 0 908.4 -1.2 90
2019-04-18 03:00:00 9.8 3 Sudoeste 21 Oeste 0 909 -0.7 74
2019-04-18 02:00:00 10.2 4 Oeste 22 Oeste 0 909.5 -0.5 68
2019-04-18 01:00:00 11 7 Oeste 18 Oeste 0 909.6 -0.4 61
2019-04-18 00:00:00 11.5 0 Calma 14 Sudoeste 0 909.7 0.1 65
2019-04-17 23:00:00 10.5 4 Oeste 11 Oeste 0 910 0.7 78
2019-04-17 22:00:00 9.4 5 Oeste 17 Sudoeste 0 910 1.6 91
2019-04-17 21:00:00 9.2 9 Oeste 25 Sudoeste 0 909.6 1.7 90
2019-04-17 20:00:00 12.2 5 Oeste 16 Noroeste 0 909.3 1.7 82
2019-04-17 19:00:00 12.4 6 Oeste 21 Sudoeste 0 908.4 1 81
2019-04-17 18:00:00 13.1 7 Oeste 18 Sur 0 907.9 0.3 73
2019-04-17 17:00:00 14.2 9 Oeste 23 Sur 0 907.6 0.3 66
2019-04-17 16:00:00 15.9 6 Sudeste 26 Sur 0 907.4 -0.3 59
2019-04-17 15:00:00 14.7 7 Oeste 30 Sur 0 907.6 -0.1 66
2019-04-17 14:00:00 17 7 Este 33 Sur 0 907.3 -0.4 51
2019-04-17 13:00:00 17 6 Este 44 Sudoeste 0 907.7 -0.3 52
2019-04-17 12:00:00 15.9 7 Sur 45 Sur 0 907.7 0.2 53
2019-04-17 11:00:00 15.3 10 Sur 42 Sur 0 907.7 0.1 55
2019-04-17 10:00:00 15.1 7 Sudeste 41 Sur 0 908 0.6 53
2019-04-17 09:00:00 13.3 13 Este 40 Este 0 907.5 -0.3 53
2019-04-17 08:00:00 13.4 15 Este 39 Este 0 907.6 -0.7 49
2019-04-17 07:00:00 13.4 15 Este 40 Este 0 907.4 -1.2 46
2019-04-17 06:00:00 13.7 11 Este 33 Sudeste 0 907.8 -1.5 46
2019-04-17 05:00:00 14.8 8 Sudeste 46 Sudeste 0 908.3 -2.1 44
2019-04-17 04:00:00 15.3 6 Este 37 Sur 0 908.6 -2.2 42
2019-04-17 03:00:00 15.1 11 Sudeste 33 Sudeste 0 909.3 -1.2 41
2019-04-17 02:00:00 15.6 9 Sudeste 33 Sur 0 910.4 0.1 39
2019-04-17 01:00:00 15.9 9 Sudeste 40 Sur 0 910.8 0.5 39
2019-04-17 00:00:00 16.5 4 Sudeste 25 Sur 0 910.5 -0.1 40
2019-04-16 23:00:00 16.5 6 Sudeste 26 Este 0 910.3 -0.1 44
2019-04-16 22:00:00 12.9 3 Oeste 12 Noroeste 0 910.3 -0.2 62
2019-04-16 21:00:00 15.8 3 Oeste 14 Noroeste 0 910.6 0 52
2019-04-16 20:00:00 17 5 Noroeste 14 Oeste 0 910.4 -0.7 46
2019-04-16 19:00:00 18.7 8 Oeste 20 Noroeste 0 910.5 -1.2 39
2019-04-16 18:00:00 19.2 9 Oeste 21 Sur 0 910.6 -1.6 37
2019-04-16 17:00:00 20.8 6 Oeste 22 Sudoeste 0 911.1 -1.8 33
2019-04-16 16:00:00 21 0 Calma 18 Noroeste 0 911.7 -1.3 30
2019-04-16 15:00:00 19.5 7 Oeste 20 Noroeste 0 912.2 -1.2 37
2019-04-16 14:00:00 19.5 3 Norte 15 Oeste 0 912.9 -0.5 44
2019-04-16 13:00:00 18.8 3 Nordeste 14 Nordeste 0 913 -0.4 41
2019-04-16 12:00:00 17 4 Este 16 Nordeste 0 913.4 0.1 48
2019-04-16 11:00:00 15.5 5 Este 13 Este 0 913.4 0.1 49
2019-04-16 10:00:00 12.5 3 Este 9 Este 0 913.4 0.1 69
2019-04-16 09:00:00 9.4 5 Oeste 10 Noroeste 0 913.3 -0.2 94
2019-04-16 08:00:00 6.4 5 Oeste 10 Oeste 0 913.3 -0.6 95
2019-04-16 07:00:00 6.6 7 Oeste 11 Oeste 0 913.3 -1 94
2019-04-16 06:00:00 7 7 Oeste 10 Oeste 0 913.5 -0.8 94
2019-04-16 05:00:00 7.6 5 Oeste 10 Oeste 0 913.9 -0.5 93
2019-04-16 04:00:00 8.3 5 Oeste 9 Oeste 0 914.3 -0.2 92
2019-04-16 03:00:00 8.9 4 Oeste 9 Noroeste 0 914.3 -0.1 91
2019-04-16 02:00:00 9.5 4 Oeste 17 Oeste 0 914.4 0.2 87
2019-04-16 01:00:00 10 8 Noroeste 17 Noroeste 0 914.5 1.1 84
2019-04-16 00:00:00 9.4 6 Oeste 18 Noroeste 0 914.4 1.7 85
2019-04-15 23:00:00 10.2 7 Oeste 26 Sudoeste 0 914.2 1.9 88
2019-04-15 22:00:00 11.2 7 Oeste 22 Sudoeste 0 913.4 1.2 91
2019-04-15 21:00:00 11.8 10 Oeste 28 Oeste 0 912.7 0.8 88
2019-04-15 20:00:00 12.7 10 Oeste 30 Sur 0 912.3 0.9 71
2019-04-15 19:00:00 14.4 10 Oeste 30 Sudoeste 0 912.2 0.9 62
2019-04-15 18:00:00 16.3 12 Oeste 33 Sudoeste 0 911.9 0.4 48
2019-04-15 17:00:00 18.2 13 Oeste 32 Sudoeste 0 911.4 0.2 44
2019-04-15 16:00:00 19 10 Oeste 31 Sudoeste 0 911.3 -0.1 44
2019-04-15 15:00:00 20.1 9 Oeste 23 Oeste 0 911.5 0.1 44
2019-04-15 14:00:00 21.1 7 Oeste 24 Sudoeste 0 911.2 -0.3 39
2019-04-15 13:00:00 20.2 4 Sudoeste 17 Oeste 0 911.4 0.4 44
2019-04-15 12:00:00 18.6 6 Oeste 24 Sudoeste 0 911.4 0.5 45
2019-04-15 11:00:00 17.5 9 Oeste 22 Oeste 0 911.5 0.9 42
2019-04-15 10:00:00 16.7 8 Oeste 21 Oeste 0 911 1.1 43
2019-04-15 09:00:00 16.2 6 Oeste 18 Noroeste 0 910.9 1 46
2019-04-15 08:00:00 12.7 8 Oeste 13 Noroeste 0 910.6 0.4 56
2019-04-15 07:00:00 11.4 9 Oeste 12 Oeste 0 909.9 -0.8 56
2019-04-15 06:00:00 11.2 10 Oeste 13 Oeste 0 909.9 -1.8 56
2019-04-15 05:00:00 12.8 6 Oeste 12 Noroeste 0 910.2 -2 57
2019-04-15 04:00:00 15.4 6 Sudoeste 15 Oeste 0 910.7 -2 51
2019-04-15 03:00:00 14 6 Oeste 12 Noroeste 0 911.7 -1.4 59
2019-04-15 02:00:00 15.2 5 Oeste 12 Noroeste 0 912.2 -1 62
2019-04-15 01:00:00 13.8 6 Oeste 12 Oeste 0 912.7 -0.6 73
2019-04-15 00:00:00 13.6 7 Oeste 10 Oeste 0 913.1 0.1 76
2019-04-14 23:00:00 13.8 7 Oeste 10 Oeste 0 913.2 0.4 75
2019-04-14 22:00:00 14.6 7 Oeste 10 Noroeste 0 913.3 0.3 69
2019-04-14 21:00:00 15.7 6 Oeste 9 Oeste 0 913 0.1 63
2019-04-14 20:00:00 18.4 4 Oeste 12 Noroeste 0 912.8 -0.4 55
2019-04-14 19:00:00 20.2 5 Oeste 13 Oeste 0 913 -0.8 49
2019-04-14 18:00:00 20.6 5 Oeste 15 Sudoeste 0 912.9 -1.3 48
2019-04-14 17:00:00 22.6 2 Este 18 Este 0 913.2 -1.2 47
2019-04-14 16:00:00 21.4 2 Nordeste 16 Noroeste 0 913.8 -0.9 47
2019-04-14 15:00:00 21.7 4 Norte 17 Este 0 914.2 -0.8 46
2019-04-14 14:00:00 21.1 5 Este 17 Este 0 914.4 -0.6 44
2019-04-14 13:00:00 20.1 8 Este 17 Este 0 914.7 -0.1 46
2019-04-14 12:00:00 19.5 2 Nordeste 13 Este 0 915 0.1 46
2019-04-14 11:00:00 18 3 Nordeste 9 Este 0 915 0.3 49
2019-04-14 10:00:00 15 2 Nordeste 7 Oeste 0 914.8 0.3 56
2019-04-14 09:00:00 11.2 5 Oeste 10 Oeste 0 914.9 0.4 78
2019-04-14 08:00:00 7.9 5 Oeste 10 Oeste 0 914.7 -0.2 80
2019-04-14 07:00:00 7.9 7 Oeste 12 Noroeste 0 914.5 -0.5 80
2019-04-14 06:00:00 8.4 7 Oeste 10 Oeste 0 914.5 -1 77
2019-04-14 05:00:00 9.4 5 Oeste 9 Oeste 0 914.9 -1 74
2019-04-14 04:00:00 10.2 4 Oeste 8 Sudoeste 0 915 -1.3 70
2019-04-14 03:00:00 11.6 3 Sur 8 Sur 0 915.5 -1.1 66
2019-04-14 02:00:00 10.1 2 Oeste 11 Oeste 0 915.9 -0.7 74
2019-04-14 01:00:00 9.3 7 Oeste 12 Oeste 0 916.3 0.2 75
2019-04-14 00:00:00 9.1 5 Oeste 13 Oeste 0 916.6 1.1 74
2019-04-13 23:00:00 9.9 6 Oeste 14 Oeste 0 916.6 1.5 73
2019-04-13 22:00:00 11.6 8 Oeste 15 Oeste 0 916.1 1.3 69
2019-04-13 21:00:00 12.3 7 Oeste 14 Oeste 0 915.5 0.9 63
2019-04-13 20:00:00 14 5 Oeste 19 Sudoeste 0 915.1 0.3 56
2019-04-13 19:00:00 16.7 4 Oeste 17 Sudoeste 0 914.8 -0.3 43
2019-04-13 18:00:00 17.7 5 Oeste 19 Sudoeste 0 914.6 -0.7 42
2019-04-13 17:00:00 18.3 3 Oeste 18 Oeste 0 914.8 -0.6 41
2019-04-13 16:00:00 18.8 4 Este 20 Este 0 915.1 -0.7 41
2019-04-13 15:00:00 18.7 4 Nordeste 20 Nordeste 0 915.3 -0.6 40
2019-04-13 14:00:00 18 4 Nordeste 17 Este 0 915.4 -0.2 41
2019-04-13 13:00:00 17.1 4 Nordeste 18 Este 0 915.8 0.5 42
2019-04-13 12:00:00 16.3 9 Este 18 Este 0 915.9 1.1 43
2019-04-13 11:00:00 15.7 0 Calma 10 Sudoeste 0 915.6 1.1 42
2019-04-13 10:00:00 14 5 Sudoeste 11 Sudoeste 0 915.3 1 48
2019-04-13 09:00:00 9.7 7 Oeste 12 Oeste 0 914.8 0.8 71
2019-04-13 08:00:00 6.7 8 Oeste 13 Noroeste 0 914.5 0.4 75
2019-04-13 07:00:00 6.4 8 Oeste 13 Noroeste 0 914.3 0.2 75
2019-04-13 06:00:00 7 8 Oeste 13 Oeste 0 914 -0.4 73
2019-04-13 05:00:00 7.3 9 Oeste 13 Oeste 0 914.1 -0.8 73
2019-04-13 04:00:00 7.5 8 Oeste 11 Noroeste 0 914.1 -0.8 73
2019-04-13 03:00:00 7.6 8 Oeste 11 Oeste 0 914.4 -0.3 73
2019-04-13 02:00:00 8.5 5 Oeste 16 Sudoeste 0 914.9 0.6 69
2019-04-13 01:00:00 9.7 7 Oeste 18 Oeste 0 914.9 1.2 65
2019-04-13 00:00:00 9.5 6 Oeste 21 Oeste 0 914.7 1.4 65
2019-04-12 23:00:00 9.4 7 Oeste 14 Sudoeste 0 914.3 1.3 64
2019-04-12 22:00:00 8.5 6 Oeste 12 Oeste 0 913.7 0.8 66
2019-04-12 21:00:00 9.8 5 Oeste 12 Noroeste 0 913.3 0.5 60
2019-04-12 20:00:00 13.1 4 Oeste 16 Noroeste 0 913 0.1 45
2019-04-12 19:00:00 14.5 5 Noroeste 19 Noroeste 0 912.9 -0.5 43
2019-04-12 18:00:00 15.3 6 Este 13 Este 0 912.8 -0.8 43
2019-04-12 17:00:00 14.9 6 Este 18 Este 0 912.9 -1.1 43
2019-04-12 16:00:00 15.6 0 Calma 21 Este 0 913.4 -0.9 41
2019-04-12 15:00:00 16.5 7 Este 23 Este 0 913.6 -0.8 39
2019-04-12 14:00:00 15.7 8 Este 21 Este 0 914 0.2 40
2019-04-12 13:00:00 15.1 8 Este 20 Nordeste 0 914.3 0.8 42
2019-04-12 12:00:00 14.5 11 Este 19 Este 0 914.4 0.8 45
2019-04-12 11:00:00 14 5 Nordeste 15 Este 0 913.8 0.7 48
2019-04-12 10:00:00 11.7 5 Este 9 Este 0 913.5 0.6 56
2019-04-12 09:00:00 7.8 4 Oeste 10 Oeste 0 913.6 0.9 84
2019-04-12 08:00:00 4.4 6 Oeste 12 Oeste 0 913.1 0.2 84
2019-04-12 07:00:00 4.8 8 Oeste 12 Oeste 0 912.9 -0.2 84
2019-04-12 06:00:00 5.1 8 Oeste 11 Oeste 0 912.7 -0.6 84
2019-04-12 05:00:00 5.3 7 Oeste 11 Oeste 0 912.9 -0.9 84
2019-04-12 04:00:00 6.1 7 Oeste 11 Oeste 0 913.1 -0.9 83
2019-04-12 03:00:00 7.2 6 Oeste 14 Oeste 0 913.3 -0.7 82
2019-04-12 02:00:00 7.8 7 Oeste 12 Oeste 0 913.8 -0.1 83
2019-04-12 01:00:00 7.7 6 Oeste 15 Oeste 0 914 0.5 83
2019-04-12 00:00:00 8.4 8 Oeste 17 Oeste 0 914 0.9 84
2019-04-11 23:00:00 8.4 6 Oeste 19 Oeste 0 913.9 1.1 84
2019-04-11 22:00:00 7.4 7 Oeste 15 Oeste 0 913.5 0.6 78
2019-04-11 21:00:00 9.3 4 Oeste 15 Noroeste 0 913.1 0.2 66
2019-04-11 20:00:00 11.8 3 Oeste 15 Noroeste 0 912.8 -0.1 55
2019-04-11 19:00:00 12.4 5 Oeste 19 Sudoeste 0 912.9 -0.3 49
2019-04-11 18:00:00 13.4 0 Calma 18 Noroeste 0 912.9 -0.5 49
2019-04-11 17:00:00 13.2 6 Oeste 19 Oeste 0 912.9 -0.7 49
2019-04-11 16:00:00 12.6 6 Oeste 21 Noroeste 0 913.2 -0.6 54
2019-04-11 15:00:00 14 6 Oeste 26 Oeste 0 913.4 -0.1 53
2019-04-11 14:00:00 13.7 7 Oeste 23 Oeste 0 913.6 0.3 55
2019-04-11 13:00:00 13.5 8 Oeste 19 Oeste 0 913.8 0.6 54
2019-04-11 12:00:00 13.1 5 Oeste 15 Oeste 0 913.5 0.4 54
2019-04-11 11:00:00 12.1 6 Nordeste 12 Este 0 913.3 0.4 62
2019-04-11 10:00:00 9.8 3 Nordeste 8 Este 0 913.2 0.6 70
2019-04-11 09:00:00 6.7 5 Oeste 10 Noroeste 0 913.1 0.2 91
2019-04-11 08:00:00 4 6 Oeste 13 Oeste 0 912.9 -0.1 92
2019-04-11 07:00:00 4.1 6 Oeste 11 Noroeste 0 912.6 -0.4 92
2019-04-11 06:00:00 4.4 6 Oeste 11 Noroeste 0 912.9 -0.4 90
2019-04-11 05:00:00 5.3 6 Oeste 10 Oeste 0 913 -0.5 87
2019-04-11 04:00:00 6.3 4 Oeste 15 Noroeste 0 913 -0.5 80
2019-04-11 03:00:00 8 5 Oeste 21 Sudoeste 0 913.3 -0.1 71
2019-04-11 02:00:00 8.6 5 Oeste 18 Oeste 0 913.5 0.3 68
2019-04-11 01:00:00 8.9 4 Noroeste 18 Noroeste 0 913.5 0.7 64
2019-04-11 00:00:00 9.1 3 Oeste 17 Sudoeste 0 913.4 1.5 63
2019-04-10 23:00:00 9.6 6 Oeste 22 Noroeste 0 913.2 1.6 66
2019-04-10 22:00:00 9.8 9 Oeste 26 Sur 0 912.8 1.1 80
2019-04-10 21:00:00 10 6 Sudoeste 24 Sudoeste 0 911.9 0.4 78
2019-04-10 20:00:00 10.5 8 Sudoeste 25 Noroeste 0 911.6 -0.2 72
2019-04-10 19:00:00 10.6 7 Oeste 22 Sudoeste 0 911.7 -0.5 70
2019-04-10 18:00:00 11.2 7 Oeste 28 Noroeste 0 911.5 -0.7 61
2019-04-10 17:00:00 11 7 Oeste 24 Noroeste 0 911.8 -0.8 62
2019-04-10 16:00:00 11 8 Oeste 26 Noroeste 0 912.2 -0.4 62
2019-04-10 15:00:00 9.7 12 Oeste 28 Noroeste 0 912.2 -0.5 63
2019-04-10 14:00:00 10.6 8 Oeste 22 Sudoeste 0 912.6 -0.2 60
2019-04-10 13:00:00 10.6 9 Oeste 23 Noroeste 0 912.6 -0.3 57
2019-04-10 12:00:00 9.3 12 Noroeste 30 Noroeste 0 912.7 0.3 65
2019-04-10 11:00:00 8 14 Noroeste 28 Noroeste 0 912.8 0.8 71
2019-04-10 10:00:00 7.2 8 Noroeste 22 Noroeste 0 912.9 0.7 77
2019-04-10 09:00:00 6.8 3 Norte 21 Noroeste 0 912.4 0.2 83
2019-04-10 08:00:00 5.7 5 Oeste 23 Noroeste 0 912 -0.4 82
2019-04-10 07:00:00 5.9 7 Oeste 20 Oeste 0 912.2 -0.4 83
2019-04-10 06:00:00 6.1 6 Noroeste 34 Noroeste 0 912.2 -0.9 83
2019-04-10 05:00:00 6.6 8 Noroeste 28 Noroeste 0 912.4 -0.7 81
2019-04-10 04:00:00 7.3 3 Oeste 23 Oeste 0 912.6 -0.7 82
2019-04-10 03:00:00 7.8 8 Noroeste 32 Noroeste 0 913.1 -0.4 82
2019-04-10 02:00:00 8.1 10 Oeste 32 Noroeste 0 913.1 -0.2 83
2019-04-10 01:00:00 8.6 6 Oeste 26 Noroeste 0 913.3 0.3 83
2019-04-10 00:00:00 8.6 8 Oeste 24 Oeste 0 913.5 0.7 88
2019-04-09 23:00:00 8.5 6 Oeste 27 Sudoeste 0 913.3 0.9 88
2019-04-09 22:00:00 8.2 8 Oeste 27 Sudoeste 0 913 0.6 87
2019-04-09 21:00:00 8.6 8 Oeste 22 Sudoeste 0 912.8 0.7 85
2019-04-09 20:00:00 9.3 5 Oeste 25 Sudoeste 0 912.4 -0.2 80
2019-04-09 19:00:00 9.8 7 Oeste 25 Sudoeste 0 912.4 0 77
2019-04-09 18:00:00 10.5 8 Sudoeste 27 Sudoeste 0 912.1 -1 69
2019-04-09 17:00:00 10.6 8 Oeste 32 Sudoeste 0 912.6 -0.7 66
2019-04-09 16:00:00 11.9 8 Oeste 26 Oeste 0 912.4 -1.1 64
2019-04-09 15:00:00 9.7 8 Oeste 27 Oeste 0 913.1 -0.5 71
2019-04-09 14:00:00 10 8 Oeste 29 Oeste 0 913.3 -0.2 73
2019-04-09 13:00:00 9.3 8 Oeste 29 Sudoeste 0 913.5 0.2 81
2019-04-09 12:00:00 8.5 9 Oeste 33 Sudoeste 0 913.6 0.4 80
2019-04-09 11:00:00 7.7 8 Oeste 25 Sudoeste 0 913.5 0.8 87
2019-04-09 10:00:00 7.5 8 Oeste 24 Sudoeste 0 913.3 1 86
2019-04-09 09:00:00 6.9 7 Oeste 21 Sudoeste 0 913.2 0.9 87
2019-04-09 08:00:00 6.2 8 Oeste 17 Sudoeste 0 912.7 0.3 82
2019-04-09 07:00:00 6.2 5 Oeste 19 Oeste 0 912.3 -0.5 76
2019-04-09 06:00:00 6.5 6 Oeste 28 Sudoeste 0 912.3 -0.6 74
2019-04-09 05:00:00 6.7 6 Oeste 26 Sudoeste 0 912.4 -0.4 76
2019-04-09 04:00:00 6.8 8 Sudoeste 26 Sudoeste 0 912.8 0 79
2019-04-09 03:00:00 6.7 9 Oeste 27 Sudoeste 0 912.9 0.3 80
2019-04-09 02:00:00 7.5 7 Oeste 25 Sur 0 912.8 0.3 88
2019-04-09 01:00:00 7.9 7 Oeste 27 Sudoeste 0 912.8 0.9 96
2019-04-09 00:00:00 7.8 7 Oeste 29 Sudoeste 0 912.6 1.2 95
2019-04-08 23:00:00 7.8 9 Sudoeste 35 Sudoeste 0.2 912.5 1.2 95
2019-04-08 22:00:00 8.5 7 Sudoeste 25 Sur 1.2 911.9 0.6 96
2019-04-08 21:00:00 8.6 9 Sudoeste 31 Sudoeste 0.7 911.4 0 96
2019-04-08 20:00:00 8.8 9 Sudoeste 30 Sudoeste 0.2 911.3 -0.5 96
2019-04-08 19:00:00 9.2 6 Sudoeste 32 Sudoeste 5.7 911.3 -0.5 95
2019-04-08 18:00:00 9.5 6 Sudoeste 33 Noroeste 7.5 911.4 -0.9 95
2019-04-08 17:00:00 9.6 8 Sudoeste 31 Sudoeste 5.5 911.8 -0.6 94
2019-04-08 16:00:00 9.7 10 Oeste 33 Sudoeste 1.8 911.8 -0.9 94
2019-04-08 15:00:00 9.8 9 Sudoeste 29 Oeste 0.3 912.3 -0.3 94
2019-04-08 14:00:00 9.8 7 Oeste 26 Sudoeste 2.3 912.4 0.1 93
2019-04-08 13:00:00 9.8 6 Oeste 27 Sudoeste 0.1 912.7 0.5 93
2019-04-08 12:00:00 10 8 Sudoeste 25 Oeste 0.2 912.6 0.4 97
2019-04-08 11:00:00 9.3 8 Oeste 25 Sudoeste 2 912.3 0.4 97
2019-04-08 10:00:00 8.9 6 Sudoeste 23 Noroeste 0.2 912.2 0.8 97
2019-04-08 09:00:00 9.2 8 Oeste 23 Oeste 0.1 912.2 0.8 97
2019-04-08 08:00:00 8.8 8 Oeste 28 Oeste 0.4 911.9 0.3 97
2019-04-08 07:00:00 9 5 Sudoeste 26 Sudoeste 1.3 911.4 -0.5 97
2019-04-08 06:00:00 9.1 8 Oeste 26 Oeste 0.3 911.4 -0.9 97
2019-04-08 05:00:00 9.3 7 Oeste 26 Sudoeste 0.3 911.6 -1 97
2019-04-08 04:00:00 9.4 3 Sudoeste 24 Oeste 0.9 911.9 -0.8 97
2019-04-08 03:00:00 9.3 4 Sudoeste 33 Sur 0.1 912.3 -0.6 97
2019-04-08 02:00:00 9.4 4 Sudoeste 29 Sudoeste 0.3 912.6 -0.1 97
2019-04-08 01:00:00 9.7 4 Sudoeste 25 Sudoeste 2.5 912.7 0.2 97
2019-04-08 00:00:00 9.5 5 Oeste 33 Sudoeste 0.5 912.9 1.3 97
2019-04-07 23:00:00 9.5 5 Oeste 26 Noroeste 2.9 912.7 1.3 97
2019-04-07 22:00:00 9.5 9 Oeste 27 Oeste 6.6 912.5 1.7 97
2019-04-07 21:00:00 9.7 6 Sudoeste 29 Oeste 8.5 911.6 0.9 97
2019-04-07 20:00:00 10 10 Oeste 32 Oeste 16.3 911.4 0.4 96
2019-04-07 19:00:00 10 5 Sudoeste 23 Sudoeste 16.1 910.8 -0.4 96
2019-04-07 18:00:00 9.2 6 Sudoeste 20 Sudoeste 9.2 910.7 -0.4 96
2019-04-07 17:00:00 8.7 5 Oeste 23 Sudoeste 4.5 911 0.1 96
2019-04-07 16:00:00 8.1 9 Sudoeste 33 Sudoeste 2.1 911.2 0.3 96
2019-04-07 15:00:00 8 8 Sudoeste 24 Oeste 3.2 911.1 0.6 95
2019-04-07 14:00:00 8.1 11 Oeste 36 Sudoeste 1.5 910.9 1 94
2019-04-07 13:00:00 8 11 Oeste 28 Oeste 2.3 910.9 1.5 94
2019-04-07 12:00:00 7.5 7 Oeste 31 Oeste 0.7 910.5 1.7 94
2019-04-07 11:00:00 7.6 8 Oeste 32 Sudoeste 0 909.9 1.6 92
2019-04-07 10:00:00 6.9 8 Oeste 28 Noroeste 0.2 909.4 1.6 93
2019-04-07 09:00:00 6.5 6 Oeste 31 Oeste 0 908.8 1.2 91
2019-04-07 08:00:00 6.4 7 Oeste 27 Noroeste 0 908.3 0.2 94
2019-04-07 07:00:00 6.3 7 Oeste 27 Oeste 0.1 907.8 -0.1 94
2019-04-07 06:00:00 6 8 Oeste 27 Sudoeste 0.5 907.6 -0.5 94
2019-04-07 05:00:00 5.8 6 Oeste 33 Oeste 3.5 908.1 0.2 94
2019-04-07 04:00:00 6.1 10 Oeste 36 Sudoeste 0 907.9 0 94
2019-04-07 03:00:00 6 9 Oeste 33 Sudoeste 0 908.1 0.4 94
2019-04-07 02:00:00 6.1 11 Oeste 39 Sudoeste 0.1 907.9 0.4 94
2019-04-07 01:00:00 6.3 13 Oeste 49 Oeste 0.5 907.9 1.1 94
2019-04-07 00:00:00 6.4 13 Oeste 41 Sudoeste 0.6 907.7 1.6 94
2019-04-06 23:00:00 6.6 13 Oeste 32 Noroeste 0.2 907.5 2 94
2019-04-06 22:00:00 6.5 9 Oeste 36 Oeste 0.3 906.8 1.8 94
2019-04-06 21:00:00 6.6 8 Oeste 28 Noroeste 0.1 906.1 1.6 94
2019-04-06 20:00:00 6.6 5 Sudoeste 30 Sudoeste 0.6 905.5 1.3 94
2019-04-06 19:00:00 6.9 8 Sudoeste 40 Oeste 0.1 905 0.1 95
2019-04-06 18:00:00 6.3 8 Oeste 35 Sudoeste 3.3 904.5 -0.4 94
2019-04-06 17:00:00 6.1 6 Sudoeste 29 Sudoeste 0.5 904.2 -0.9 94
2019-04-06 16:00:00 5.8 5 Sudoeste 23 Sudoeste 6.5 904.9 -0.2 94
2019-04-06 15:00:00 6.5 5 Oeste 30 Oeste 0.2 904.9 -0.3 95
2019-04-06 14:00:00 6.2 9 Oeste 24 Oeste 2.4 905.1 0.2 96
2019-04-06 13:00:00 6.7 10 Oeste 36 Sudoeste 1.7 905.1 0.4 97
2019-04-06 12:00:00 5.4 6 Oeste 21 Oeste 3.5 905.2 0.9 97
2019-04-06 11:00:00 5.2 4 Oeste 23 Noroeste 1.9 904.9 0.6 97
2019-04-06 10:00:00 4.4 6 Oeste 23 Sudoeste 2.3 904.7 1.1 96
2019-04-06 09:00:00 4.6 5 Oeste 23 Oeste 1.1 904.3 0.9 96
2019-04-06 08:00:00 3.7 10 Oeste 33 Noroeste 5.1 904.3 1 93
2019-04-06 07:00:00 4.9 9 Oeste 28 Oeste 0 903.6 0.1 92
2019-04-06 06:00:00 5.1 10 Oeste 32 Sudoeste 0 903.4 -0.6 91
2019-04-06 05:00:00 5 9 Oeste 37 Oeste 0 903.3 -1 91
2019-04-06 04:00:00 5 10 Oeste 31 Sudoeste 0 903.5 -0.6 91
2019-04-06 03:00:00 4.9 10 Oeste 30 Sudoeste 0 904 0 90
2019-04-06 02:00:00 4.8 7 Oeste 32 Oeste 0 904.3 1.1 90
2019-04-06 01:00:00 4.8 8 Sudoeste 27 Sudoeste 0 904.1 1.8 85
2019-04-06 00:00:00 5.1 10 Oeste 33 Sudoeste 0 904 2.6 86
2019-04-05 23:00:00 5 12 Oeste 36 Sudoeste 0.1 903.2 2.1 90
2019-04-05 22:00:00 5.2 11 Oeste 35 Oeste 0.3 902.3 1.7 93
2019-04-05 21:00:00 5.3 7 Oeste 27 Noroeste 0.4 901.4 1.3 92
2019-04-05 20:00:00 4.6 8 Oeste 37 Sudoeste 1.4 901.1 1.4 89
2019-04-05 19:00:00 6.3 8 Oeste 33 Noroeste 0 900.6 0.9 73
2019-04-05 18:00:00 6.8 12 Oeste 38 Oeste 0 900.1 0.1 71
2019-04-05 17:00:00 7 10 Oeste 32 Oeste 0 899.7 -0.1 75
2019-04-05 16:00:00 6.4 7 Oeste 28 Sudoeste 0 899.7 0.3 83
2019-04-05 15:00:00 6.3 6 Oeste 24 Sudoeste 0 900 0.7 83
2019-04-05 14:00:00 6 9 Oeste 33 Oeste 0.2 899.8 1.1 93
2019-04-05 13:00:00 5.7 10 Oeste 31 Noroeste 2.6 899.4 0.8 96
2019-04-05 12:00:00 5.7 6 Oeste 33 Oeste 4.2 899.3 0.1 96
2019-04-05 11:00:00 6.3 6 Sudoeste 28 Noroeste 2.2 898.7 -0.2 96
2019-04-05 10:00:00 5.5 9 Oeste 35 Oeste 3.1 898.6 -0.3 96
2019-04-05 09:00:00 5.8 8 Sudoeste 34 Sudoeste 13.8 899.2 -0.1 96
2019-04-05 08:00:00 6.4 7 Oeste 26 Sudoeste 9.1 898.9 -1 96
2019-04-05 07:00:00 6.2 6 Sudoeste 26 Sudoeste 5.9 898.9 -1.6 96
2019-04-05 06:00:00 5.9 4 Oeste 19 Sudoeste 2.3 899.3 -1.8 95
2019-04-05 05:00:00 5.9 7 Oeste 27 Oeste 0.1 899.9 -1.5 95
2019-04-05 04:00:00 5.9 6 Sudoeste 27 Sudoeste 0.1 900.5 -1 96
2019-04-05 03:00:00 6.2 8 Sudoeste 29 Sudoeste 0 901.1 -0.4 91
2019-04-05 02:00:00 6.2 8 Sudoeste 33 Sudoeste 0 901.4 -0.2 91
2019-04-05 01:00:00 6.2 8 Oeste 28 Oeste 0 901.5 0.4 84
2019-04-05 00:00:00 5.8 5 Oeste 24 Sudoeste 0 901.5 0.8 76
2019-04-04 23:00:00 5.1 8 Oeste 23 Oeste 0 901.6 1.2 74
2019-04-04 22:00:00 5.9 7 Oeste 24 Sudoeste 0 901.1 0.7 65
2019-04-04 21:00:00 6.7 9 Sudoeste 27 Sudoeste 0 900.7 0.1 61
2019-04-04 20:00:00 8.3 9 Oeste 25 Oeste 0 900.4 -0.2 59
2019-04-04 19:00:00 9.3 9 Oeste 25 Oeste 0 900.4 -0.6 59
2019-04-04 18:00:00 12.1 7 Oeste 25 Oeste 0 900.6 -0.9 51
2019-04-04 17:00:00 12.3 7 Oeste 27 Oeste 0 900.6 -1 48
2019-04-04 16:00:00 12.7 7 Oeste 25 Sudoeste 0 901 -0.9 46
2019-04-04 15:00:00 12.7 7 Oeste 25 Sudoeste 0 901.5 -0.3 47
2019-04-04 14:00:00 12.7 6 Sudoeste 18 Sudoeste 0 901.6 0.2 48
2019-04-04 13:00:00 12.5 4 Sudoeste 22 Sudoeste 0 901.9 0.8 48
2019-04-04 12:00:00 11.1 6 Sudoeste 18 Oeste 0 901.8 0.9 49
2019-04-04 11:00:00 10.6 4 Este 10 Este 0 901.4 0.9 49
2019-04-04 10:00:00 7.8 3 Este 7 Oeste 0 901.1 0.9 57
2019-04-04 09:00:00 4.5 5 Oeste 12 Oeste 0 900.9 0.7 80
2019-04-04 08:00:00 2.1 6 Oeste 10 Oeste 0 900.5 0.2 83
2019-04-04 07:00:00 3.1 6 Oeste 10 Noroeste 0 900.2 -0.1 83
2019-04-04 06:00:00 3.6 6 Oeste 10 Oeste 0 900.2 -0.6 83
2019-04-04 05:00:00 4.7 7 Oeste 10 Oeste 0 900.3 -0.9 82
2019-04-04 04:00:00 7.2 3 Oeste 17 Oeste 0 900.3 -1.3 72
2019-04-04 03:00:00 8.5 8 Noroeste 17 Oeste 0 900.8 -1.1 67
2019-04-04 02:00:00 8.8 7 Noroeste 24 Noroeste 0 901.2 -1.2 66
2019-04-04 01:00:00 9.3 8 Noroeste 23 Noroeste 0 901.6 -0.6 65
2019-04-04 00:00:00 9.2 6 Oeste 19 Oeste 0 901.9 -0.1 68
2019-04-03 23:00:00 8 6 Oeste 15 Sudoeste 0 902.4 0.3 78
2019-04-03 22:00:00 8.9 5 Oeste 17 Sudoeste 0 902.2 -0.1 65
2019-04-03 21:00:00 10.3 5 Oeste 18 Sudoeste 0 902 -0.5 60
2019-04-03 20:00:00 11.9 8 Oeste 24 Noroeste 0 902.1 -1.1 54
2019-04-03 19:00:00 13.7 8 Oeste 22 Noroeste 0 902.3 -1.6 49
2019-04-03 18:00:00 15.1 7 Oeste 29 Noroeste 0 902.5 -2.4 51
2019-04-03 17:00:00 16.1 7 Oeste 21 Noroeste 0 903.2 -2.1 49
2019-04-03 16:00:00 16.3 7 Oeste 22 Sudoeste 0 903.9 -1.7 50
2019-04-03 15:00:00 16.5 8 Oeste 20 Sudoeste 0 904.9 -1 50
2019-04-03 14:00:00 16.4 6 Oeste 23 Noroeste 0 905.3 -0.4 53
2019-04-03 13:00:00 15.3 6 Noroeste 16 Norte 0 905.6 -0.3 49
2019-04-03 12:00:00 15.3 6 Este 14 Este 0 905.9 -0.5 58
2019-04-03 11:00:00 14.4 5 Este 12 Este 0 905.7 -1 63
2019-04-03 10:00:00 12.1 4 Este 6 Este 0 905.9 -1.4 74
2019-04-03 09:00:00 8 4 Oeste 9 Oeste 0 906.4 -1.4 92
2019-04-03 08:00:00 6 5 Oeste 9 Noroeste 0 906.7 -1.8 91
2019-04-03 07:00:00 6.3 4 Oeste 10 Oeste 0 907.3 -1.7 88
2019-04-03 06:00:00 6.5 5 Oeste 10 Oeste 0 907.8 -1.9 87
2019-04-03 05:00:00 6.7 5 Oeste 12 Noroeste 0 908.5 -1.8 86
2019-04-03 04:00:00 6.7 6 Oeste 12 Oeste 0 909 -1.6 80
2019-04-03 03:00:00 7.3 6 Oeste 12 Oeste 0 909.7 -1.2 79
2019-04-03 02:00:00 7.6 5 Oeste 12 Oeste 0 910.3 -0.5 80
2019-04-03 01:00:00 7.9 8 Oeste 12 Noroeste 0 910.6 0.1 79
2019-04-03 00:00:00 8.1 7 Oeste 14 Oeste 0 910.9 0.6 80
2019-04-02 23:00:00 9 8 Oeste 12 Oeste 0 910.8 0.1 83
2019-04-02 22:00:00 9.5 5 Oeste 10 Oeste 0 910.5 0.1 83
2019-04-02 21:00:00 11.1 4 Oeste 12 Oeste 0 910.3 -0.4 72
2019-04-02 20:00:00 13 4 Oeste 12 Noroeste 0 910.7 -0.2 68
2019-04-02 19:00:00 14.1 4 Oeste 13 Oeste 0 910.4 -0.6 62
2019-04-02 18:00:00 14.6 4 Oeste 14 Oeste 0 910.7 -0.8 60
2019-04-02 17:00:00 14.5 5 Oeste 11 Oeste 0 910.9 -1.1 59
2019-04-02 16:00:00 14.4 4 Noroeste 14 Oeste 0 911 -1.2 56
2019-04-02 15:00:00 14.4 3 Noroeste 11 Este 0 911.5 -0.9 52
2019-04-02 14:00:00 15.1 6 Este 15 Nordeste 0 912 -0.1 53
2019-04-02 13:00:00 14.1 4 Este 14 Este 0 912.2 0.3 55
2019-04-02 12:00:00 14.2 5 Este 13 Nordeste 0 912.4 0.7 55
2019-04-02 11:00:00 13.1 3 Nordeste 8 Este 0 912.1 0.7 61
2019-04-02 10:00:00 10.1 2 Nordeste 8 Noroeste 0 911.9 0.6 80
2019-04-02 09:00:00 6.1 6 Oeste 12 Noroeste 0 911.7 0.5 93
2019-04-02 08:00:00 4.8 5 Oeste 11 Oeste 0 911.4 -0.2 93
2019-04-02 07:00:00 5.2 6 Oeste 12 Oeste 0 911.3 -0.3 93
2019-04-02 06:00:00 5.4 8 Oeste 14 Noroeste 0 911.2 -1 93
2019-04-02 05:00:00 5 6 Oeste 12 Oeste 0 911.6 -0.8 93
2019-04-02 04:00:00 5.2 8 Oeste 13 Oeste 0 911.6 -0.8 93
2019-04-02 03:00:00 5.8 6 Oeste 13 Noroeste 0 912.2 -0.1 93
2019-04-02 02:00:00 5.8 8 Oeste 10 Oeste 0 912.4 0.4 92
2019-04-02 01:00:00 6.6 7 Oeste 11 Oeste 0 912.4 0.7 90
2019-04-02 00:00:00 7.9 7 Oeste 12 Oeste 0.1 912.3 1.5 90
2019-04-01 23:00:00 9.1 4 Oeste 14 Sudoeste 0 912 1.8 87
2019-04-01 22:00:00 9.7 0 Calma 16 Sudoeste 0 911.7 1.7 86
2019-04-01 21:00:00 10.2 5 Oeste 17 Noroeste 0 910.8 1 87
2019-04-01 20:00:00 10.6 5 Oeste 20 Oeste 0 910.2 0.3 86
2019-04-01 19:00:00 11.3 4 Sudoeste 18 Sudoeste 0 910 0.3 84
2019-04-01 18:00:00 11.2 5 Oeste 17 Oeste 0.1 909.8 -0.2 87
2019-04-01 17:00:00 11.1 8 Oeste 19 Oeste 0 909.9 -0.1 88
2019-04-01 16:00:00 10.7 6 Oeste 15 Oeste 0.9 909.7 -0.6 90
2019-04-01 15:00:00 11.2 5 Oeste 15 Sudoeste 0 910 -0.3 79
2019-04-01 14:00:00 12.1 4 Sur 21 Sur 0.1 910 0.2 78
2019-04-01 13:00:00 9.8 4 Oeste 18 Oeste 0.5 910.3 1.3 90
2019-04-01 12:00:00 9.3 5 Oeste 18 Oeste 0.8 910.3 1.7 90
2019-04-01 11:00:00 9.4 4 Oeste 17 Oeste 0.4 909.8 1.8 93
2019-04-01 10:00:00 8.3 5 Oeste 16 Sudoeste 1.8 909 1.2 93
2019-04-01 09:00:00 8.2 6 Oeste 23 Oeste 2.5 908.6 0.9 93
2019-04-01 08:00:00 8.1 5 Oeste 13 Sudoeste 0 908 0.3 91
2019-04-01 07:00:00 8.4 5 Oeste 20 Sudoeste 1.4 907.8 -0.4 91
2019-04-01 06:00:00 9.1 3 Sudoeste 8 Sudoeste 0.1 907.7 -0.6 91
2019-04-01 05:00:00 8.9 3 Oeste 8 Noroeste 0 907.7 -0.7 91
2019-04-01 04:00:00 8.1 4 Oeste 13 Oeste 0 908.2 -0.2 91
2019-04-01 03:00:00 8.2 5 Oeste 17 Oeste 0.1 908.3 0 91
2019-04-01 02:00:00 8.6 7 Oeste 17 Oeste 0 908.4 0 96
2019-04-01 01:00:00 9.6 3 Oeste 10 Oeste 0.1 908.4 0.3 97
2019-04-01 00:00:00 8.9 4 Oeste 9 Oeste 2.2 908.3 1.2 97
2019-03-31 23:00:00 8.7 4 Oeste 8 Oeste 0.6 908.4 1.7 97
2019-03-31 22:00:00 7.9 2 Noroeste 15 Sudoeste 14.7 908.1 1.9 95
2019-03-31 21:00:00 10 0 Calma 8 Noroeste 3.5 907.1 0.7 92
2019-03-31 20:00:00 10.9 4 Oeste 18 Oeste 0.1 906.7 0.3 81
2019-03-31 19:00:00 11 8 Oeste 17 Sudoeste 0.4 906.2 -0.3 89
2019-03-31 18:00:00 10.5 8 Oeste 21 Oeste 0.7 906.4 -0.6 89
2019-03-31 17:00:00 13 3 Sudoeste 15 Sudoeste 0.3 906.4 -1.1 82
2019-03-31 16:00:00 13.1 5 Oeste 15 Oeste 0.1 906.5 -1.4 78
2019-03-31 15:00:00 12.9 5 Oeste 13 Noroeste 0 907 -1.1 76
2019-03-31 14:00:00 13 5 Sudoeste 13 Oeste 0 907.5 -0.3 76
2019-03-31 13:00:00 12.3 3 Norte 10 Nordeste 0 907.9 0.5 85
2019-03-31 12:00:00 11.3 0 Calma 9 Este 0 908.1 0.7 86
2019-03-31 11:00:00 -- -- -- -- -- -- -- -- --
2019-03-31 10:00:00 -- -- -- -- -- -- -- -- --
2019-03-31 09:00:00 -- -- -- -- -- -- -- -- --
2019-03-31 08:00:00 -- -- -- -- -- -- -- -- --
2019-03-31 07:00:00 -- -- -- -- -- -- -- -- --
2019-03-31 06:00:00 -- -- -- -- -- -- -- -- --
2019-03-31 05:00:00 -- -- -- -- -- -- -- -- --
2019-03-31 03:00:00 -- -- -- -- -- -- -- -- --
2019-03-31 01:00:00 -- -- -- -- -- -- -- -- --
2019-03-31 00:00:00 10.2 3 Sudeste 20 Sur 0 910.6 1 83
2019-03-30 23:00:00 11.7 3 Sur 21 Sudeste 0 910.7 0.7 72
2019-03-30 22:00:00 11.4 0 Calma 12 Nordeste 0 910.2 0.1 73
2019-03-30 21:00:00 12.1 3 Nordeste 15 Noroeste 0 909.6 -0.7 71
2019-03-30 20:00:00 11.1 0 Calma 10 Noroeste 0 910 -0.1 76
2019-03-30 19:00:00 11.4 4 Sur 26 Sur 0 910.1 -0.2 74
2019-03-30 18:00:00 11.4 9 Sudeste 26 Sudeste 0 910.3 -0.1 72
2019-03-30 17:00:00 13.7 6 Sudeste 19 Este 0 910.1 -1.2 65
2019-03-30 16:00:00 15.2 9 Este 25 Este 0 910.3 -1.6 61
2019-03-30 15:00:00 15.3 7 Nordeste 26 Este 0 910.4 -2 59
2019-03-30 14:00:00 15.1 11 Este 24 Nordeste 0 911.3 -1.2 58
2019-03-30 13:00:00 14.4 8 Nordeste 21 Este 0 911.9 -0.6 60
2019-03-30 12:00:00 14.3 6 Nordeste 20 Nordeste 0 912.4 0 61
2019-03-30 11:00:00 14.4 7 Este 18 Nordeste 0 912.5 0.1 60
2019-03-30 10:00:00 14.3 5 Nordeste 18 Norte 0 912.5 -0.2 59
2019-03-30 09:00:00 12 4 Nordeste 12 Norte 0 912.4 -0.1 66
2019-03-30 08:00:00 8.1 3 Oeste 12 Nordeste 0 912.4 -0.3 79
2019-03-30 07:00:00 8.9 2 Norte 21 Sudeste 0 912.7 -0.3 76
2019-03-30 06:00:00 9.7 9 Sur 31 Este 0 912.5 -1.3 73
2019-03-30 05:00:00 9.1 3 Sudeste 27 Sudeste 0 912.7 -1.5 75
2019-03-30 04:00:00 9.4 9 Este 36 Sudeste 0 913 -2.1 75
2019-03-30 03:00:00 9.2 6 Sudeste 28 Sudeste 0 913.8 -1.5 73
2019-03-30 02:00:00 9.1 5 Nordeste 28 Sudoeste 0 914.2 -1.1 78
2019-03-30 01:00:00 8.5 5 Nordeste 28 Sur 0 915.1 -0.3 80
2019-03-30 00:00:00 8.7 8 Sur 35 Sur 0 915.3 0.4 80
2019-03-29 23:00:00 9.1 4 Norte 18 Norte 0 915.3 0.8 71
2019-03-29 22:00:00 9 5 Noroeste 15 Noroeste 0 915.4 0.7 72
2019-03-29 21:00:00 9.6 4 Noroeste 14 Sudoeste 0 914.9 0.1 70
2019-03-29 20:00:00 8.7 4 Oeste 14 Noroeste 0 914.5 -0.1 76
2019-03-29 19:00:00 11.4 4 Noroeste 11 Noroeste 0 914.7 -0.2 68
2019-03-29 18:00:00 11.8 0 Calma 15 Sudeste 0 914.8 -0.4 69
2019-03-29 17:00:00 12 4 Nordeste 20 Este 0 914.6 -1.1 68
2019-03-29 16:00:00 13.1 12 Este 24 Este 0 914.9 -0.9 64
2019-03-29 15:00:00 13.7 8 Este 19 Este 0 915.2 -0.8 61
2019-03-29 14:00:00 13.7 7 Este 25 Este 0 915.7 -0.4 62
2019-03-29 13:00:00 13.4 12 Este 27 Este 0 915.8 -0.2 61
2019-03-29 12:00:00 13.2 9 Este 23 Nordeste 0 916 0 61
2019-03-29 11:00:00 12.9 6 Este 27 Este 0 916.1 0.1 63
2019-03-29 10:00:00 11 8 Sudeste 26 Sur 0 916 0.4 67
2019-03-29 09:00:00 9.2 3 Sudeste 30 Sur 0 916 0.3 73
2019-03-29 08:00:00 8.1 8 Sudeste 34 Sur 0 916 0.5 71
2019-03-29 07:00:00 8.1 6 Este 28 Sur 0 915.6 0 60
2019-03-29 06:00:00 8 4 Sudeste 29 Sudoeste 0 915.7 -0.1 60
2019-03-29 05:00:00 7.9 5 Sudeste 22 Sur 0 915.5 -0.3 63
2019-03-29 04:00:00 7.7 5 Sudeste 29 Sudoeste 0 915.6 -0.6 53
2019-03-29 03:00:00 8.1 2 Sudeste 19 Este 0 915.8 -0.7 46
2019-03-29 02:00:00 7.9 3 Nordeste 16 Este 0 915.8 -1.1 49
2019-03-29 01:00:00 7.7 0 Calma 22 Este 0 916.2 -0.8 50
2019-03-29 00:00:00 8.9 6 Nordeste 23 Nordeste 0 916.5 -0.3 51
2019-03-28 23:00:00 8.8 6 Este 20 Sudeste 0 916.9 0.5 56
2019-03-28 22:00:00 8.9 8 Nordeste 36 Nordeste 0 917 1 49
2019-03-28 21:00:00 9.2 12 Nordeste 33 Este 0 916.8 0.7 48
2019-03-28 20:00:00 9.5 15 Este 33 Este 0 916.4 0.7 51
2019-03-28 19:00:00 9.8 11 Este 28 Este 0 916 -0.2 56
2019-03-28 18:00:00 10.9 12 Este 30 Este 0 916.1 -0.1 55
2019-03-28 17:00:00 11.9 13 Este 32 Este 0 915.7 -1.2 53
2019-03-28 16:00:00 12.4 13 Este 38 Este 0 916.2 -1.2 55
2019-03-28 15:00:00 12.5 15 Este 33 Este 0 916.2 -1.7 56
2019-03-28 14:00:00 12.3 13 Este 31 Este 0 916.9 -1.1 55
2019-03-28 13:00:00 12.3 13 Este 40 Nordeste 0 917.4 -0.2 56
2019-03-28 12:00:00 11.2 15 Nordeste 44 Este 0 917.9 0.3 56
2019-03-28 11:00:00 10.7 13 Nordeste 41 Nordeste 0 918 0.9 56
2019-03-28 10:00:00 9.8 13 Nordeste 33 Nordeste 0 917.6 1 59
2019-03-28 09:00:00 8.4 10 Nordeste 28 Este 0 917.6 1.2 63
2019-03-28 08:00:00 7.4 5 Nordeste 21 Nordeste 0 917.1 1 63
2019-03-28 07:00:00 6.3 3 Noroeste 15 Nordeste 0 916.6 0.4 61
2019-03-28 06:00:00 7 4 Norte 26 Este 0 916.4 -0.2 59
2019-03-28 05:00:00 7.4 5 Nordeste 32 Norte 0 916.1 -1 56
2019-03-28 04:00:00 7.6 9 Nordeste 36 Este 0 916.2 -1.4 58
2019-03-28 03:00:00 7.9 7 Nordeste 44 Este 0 916.6 -0.8 62
2019-03-28 02:00:00 7.6 15 Este 35 Sudeste 0 917.1 -0.4 75
2019-03-28 01:00:00 8 15 Este 40 Este 0 917.6 0.8 76
2019-03-28 00:00:00 8.2 19 Este 41 Este 0 917.4 1.1 76
2019-03-27 23:00:00 8.3 19 Este 45 Este 0 917.5 2 76
2019-03-27 22:00:00 8.1 20 Este 41 Este 0 916.8 1.7 73
2019-03-27 21:00:00 7.9 17 Este 44 Este 0 916.3 1.5 66
2019-03-27 20:00:00 8.6 18 Este 36 Este 0 915.5 0.9 63
2019-03-27 19:00:00 9.5 10 Este 27 Este 0 915.1 0.4 61
2019-03-27 18:00:00 10.4 11 Este 24 Nordeste 0 914.8 0 56
2019-03-27 17:00:00 11.3 10 Este 32 Este 0 914.6 -0.4 51
2019-03-27 16:00:00 11.8 13 Este 32 Este 0 914.7 -0.2 48
2019-03-27 15:00:00 12.6 13 Este 29 Este 0 914.8 0 45
2019-03-27 14:00:00 12.4 13 Este 35 Este 0 915 0.6 46
2019-03-27 13:00:00 12.3 15 Este 31 Nordeste 0 914.9 1.1 49
2019-03-27 12:00:00 11.9 14 Este 35 Este 0 914.8 1.3 56
2019-03-27 11:00:00 10.6 12 Este 37 Este 0 914.4 1.9 62
2019-03-27 10:00:00 9.9 12 Este 33 Este 0 913.8 1.4 66
2019-03-27 09:00:00 8.2 10 Nordeste 37 Este 0 913.5 1.3 71
2019-03-27 08:00:00 7.1 12 Nordeste 40 Este 0 912.5 1.1 72
2019-03-27 07:00:00 7 14 Este 33 Este 0 912.4 0.6 70
2019-03-27 06:00:00 7.5 11 Este 34 Este 0 912.2 0.6 65
2019-03-27 05:00:00 7.5 13 Este 39 Este 0 911.4 -0.3 68
2019-03-27 04:00:00 7.9 6 Este 48 Nordeste 0 911.8 -0.1 71
2019-03-27 03:00:00 8.3 14 Este 37 Este 0 911.6 0.4 70
2019-03-27 02:00:00 8.2 17 Este 37 Este 0 911.7 0.5 71
2019-03-27 01:00:00 8.4 17 Nordeste 50 Este 0 911.9 1 74
2019-03-27 00:00:00 8.6 17 Este 51 Este 0 911.2 0.8 75